Time;durP1;ratioP1;P1;durP2;ratioP2;P2;SDS_P1;SDS_P2;PMS_P1;PMS_P2;Temp;Humidity;BMP_temperature;BMP_pressure;BME280_temperature;BME280_humidity;BME280_pressure;Samples;Min_cycle;Max_cycle;Signal;HPM_P1;HPM_P2
2022/05/30 00:01:08;;;;;;;;;13.80;13.40;;;;;;;;5207872;28;8783;-67
2022/05/30 00:03:40;;;;;;;;;22.60;22.60;;;;;;;;5191156;28;8814;-66
2022/05/30 00:06:12;;;;;;;;;14.40;14.40;;;;;;;;5207558;28;8798;-67
2022/05/30 00:08:43;;;;;;;;;17.60;17.60;;;;;;;;5225239;28;9607;-68
2022/05/30 00:11:15;;;;;;;;;19.60;18.00;;;;;;;;5207620;28;8806;-66
2022/05/30 00:13:47;;;;;;;;;12.00;11.40;;;;;;;;5191568;28;8802;-66
2022/05/30 00:16:20;;;;;;;;;7.00;7.00;;;;;;;;5207916;28;8775;-67
2022/05/30 00:18:51;;;;;;;;;2.00;2.00;;;;;;;;5232075;28;8915;-67
2022/05/30 00:21:41;;;;;;;;;3.40;3.40;;;;;;;;5231101;28;8788;-67
2022/05/30 00:24:13;;;;;;;;;4.40;3.00;;;;;;;;5228180;28;8785;-66
2022/05/30 00:26:45;;;;;;;;;1.00;1.00;;;;;;;;5231673;28;8793;-67
2022/05/30 00:29:16;;;;;;;;;4.60;4.60;;;;;;;;5232192;28;8796;-67
2022/05/30 00:32:06;;;;;;;;;2.50;2.50;;;;;;;;5234912;28;8789;-66
2022/05/30 00:34:37;;;;;;;;;5.40;5.40;;;;;;;;5200669;28;8795;-66
2022/05/30 00:37:08;;;;;;;;;5.00;5.00;;;;;;;;5229621;28;8799;-66
2022/05/30 00:39:39;;;;;;;;;7.40;6.80;;;;;;;;5211675;28;8813;-66
2022/05/30 00:42:16;;;;;;;;;4.00;4.00;;;;;;;;5215609;28;8772;-66
2022/05/30 00:44:51;;;;;;;;;5.20;5.20;;;;;;;;5249845;28;8910;-66
2022/05/30 00:47:25;;;;;;;;;5.60;5.60;;;;;;;;5215085;28;8823;-66
2022/05/30 00:49:56;;;;;;;;;5.00;5.00;;;;;;;;5228340;28;9512;-67
2022/05/30 00:52:27;;;;;;;;;7.40;7.00;;;;;;;;5215230;28;8920;-66
2022/05/30 00:55:04;;;;;;;;;7.00;7.00;;;;;;;;5231986;28;8773;-66
2022/05/30 00:57:35;;;;;;;;;6.80;5.80;;;;;;;;5228003;28;8822;-66
2022/05/30 01:00:09;;;;;;;;;4.80;4.80;;;;;;;;5194283;28;8989;-66
2022/05/30 01:02:43;;;;;;;;;3.80;3.80;;;;;;;;5194539;28;8774;-67
2022/05/30 01:08:25;;;;;;;;;4.00;4.00;;;;;;;;5228696;28;8799;-66
2022/05/30 01:10:57;;;;;;;;;4.40;4.40;;;;;;;;5210850;28;8767;-67
2022/05/30 01:13:28;;;;;;;;;6.40;6.40;;;;;;;;5222998;28;8792;-67
2022/05/30 01:15:59;;;;;;;;;3.40;3.40;;;;;;;;5231321;28;8791;-68
2022/05/30 01:18:39;;;;;;;;;2.40;2.40;;;;;;;;5221386;28;8828;-67
2022/05/30 01:21:15;;;;;;;;;6.75;6.50;;;;;;;;5214608;28;8765;-67
2022/05/30 01:23:53;;;;;;;;;3.80;3.80;;;;;;;;5231576;28;8781;-67
2022/05/30 01:27:05;;;;;;;;;5.50;5.50;;;;;;;;5249078;28;8785;-67
2022/05/30 01:30:01;;;;;;;;;4.20;4.20;;;;;;;;5249006;28;8813;-67
2022/05/30 01:32:31;;;;;;;;;4.00;4.00;;;;;;;;5231683;28;8878;-67
2022/05/30 01:35:04;;;;;;;;;5.80;5.80;;;;;;;;5209979;28;8779;-68
2022/05/30 01:37:39;;;;;;;;;3.00;3.00;;;;;;;;5193452;28;8791;-68
2022/05/30 01:40:12;;;;;;;;;4.00;4.00;;;;;;;;5193700;28;8818;-68
2022/05/30 01:42:43;;;;;;;;;4.75;4.75;;;;;;;;5210519;28;8775;-67
2022/05/30 01:45:14;;;;;;;;;4.00;4.00;;;;;;;;5193492;28;8857;-67
2022/05/30 01:47:45;;;;;;;;;3.60;3.60;;;;;;;;5238588;28;8840;-67
2022/05/30 01:50:18;;;;;;;;;4.00;4.00;;;;;;;;5214087;28;8816;-67
2022/05/30 01:52:50;;;;;;;;;4.20;3.80;;;;;;;;5230628;28;9515;-67
2022/05/30 01:55:31;;;;;;;;;2.80;2.80;;;;;;;;5214495;28;8789;-67
2022/05/30 01:58:09;;;;;;;;;3.25;3.25;;;;;;;;5215203;28;9531;-67
2022/05/30 02:01:20;;;;;;;;;4.00;4.00;;;;;;;;5233246;28;8796;-67
2022/05/30 02:03:53;;;;;;;;;3.50;3.50;;;;;;;;5205692;28;8785;-66
2022/05/30 02:06:26;;;;;;;;;3.00;3.00;;;;;;;;5207898;28;8787;-68
2022/05/30 02:08:57;;;;;;;;;3.00;3.00;;;;;;;;5209415;28;8815;-65
2022/05/30 02:11:33;;;;;;;;;4.00;4.00;;;;;;;;5209640;28;9580;-67
2022/05/30 02:14:23;;;;;;;;;4.75;4.75;;;;;;;;5227470;28;8782;-67
2022/05/30 02:17:01;;;;;;;;;4.25;3.75;;;;;;;;5205542;28;8804;-68
2022/05/30 02:19:50;;;;;;;;;5.00;5.00;;;;;;;;5218551;28;8803;-68
2022/05/30 02:22:29;;;;;;;;;3.00;3.00;;;;;;;;5192780;28;8821;-67
2022/05/30 02:25:01;;;;;;;;;4.00;4.00;;;;;;;;5193253;28;9569;-67
2022/05/30 02:27:32;;;;;;;;;4.25;4.25;;;;;;;;5209436;28;8800;-67
2022/05/30 02:30:05;;;;;;;;;3.00;3.00;;;;;;;;5193564;28;8887;-68
2022/05/30 02:32:36;;;;;;;;;5.25;5.25;;;;;;;;5192782;28;8787;-67
2022/05/30 02:37:58;;;;;;;;;2.75;2.75;;;;;;;;5208015;28;8790;-68
2022/05/30 02:41:07;;;;;;;;;4.00;4.00;;;;;;;;5223018;28;8794;-68
2022/05/30 02:43:52;;;;;;;;;4.00;4.00;;;;;;;;5193371;28;8778;-67
2022/05/30 02:46:24;;;;;;;;;8.75;8.75;;;;;;;;5223498;28;9483;-67
2022/05/30 02:48:56;;;;;;;;;9.25;9.25;;;;;;;;5219799;28;8997;-67
2022/05/30 02:51:27;;;;;;;;;2.67;2.67;;;;;;;;5208877;28;8909;-67
2022/05/30 02:53:59;;;;;;;;;3.00;3.00;;;;;;;;5208950;28;11127;-68
2022/05/30 02:56:52;;;;;;;;;6.00;6.00;;;;;;;;5226549;28;8806;-67
2022/05/30 02:59:42;;;;;;;;;2.50;2.50;;;;;;;;5211373;28;8814;-67
2022/05/30 03:02:14;;;;;;;;;3.75;3.75;;;;;;;;5208756;28;8787;-68
2022/05/30 03:04:46;;;;;;;;;3.00;3.00;;;;;;;;5219769;28;8835;-68
2022/05/30 03:07:17;;;;;;;;;4.00;3.50;;;;;;;;5221013;28;8868;-68
2022/05/30 03:09:48;;;;;;;;;4.00;3.75;;;;;;;;5225298;28;8789;-68
2022/05/30 03:12:31;;;;;;;;;4.00;4.00;;;;;;;;5229577;28;9521;-68
2022/05/30 03:15:03;;;;;;;;;9.75;9.75;;;;;;;;5229355;28;8891;-68
2022/05/30 03:17:34;;;;;;;;;7.50;7.50;;;;;;;;5229039;28;8787;-68
2022/05/30 03:20:06;;;;;;;;;4.50;4.50;;;;;;;;5246255;28;8933;-68
2022/05/30 03:22:39;;;;;;;;;12.40;11.20;;;;;;;;5210684;28;8855;-67
2022/05/30 03:25:29;;;;;;;;;10.00;10.00;;;;;;;;5229217;28;8765;-68
2022/05/30 03:28:01;;;;;;;;;10.40;10.40;;;;;;;;5204242;28;8787;-68
2022/05/30 03:30:36;;;;;;;;;5.25;5.25;;;;;;;;5191546;28;8779;-68
2022/05/30 03:33:08;;;;;;;;;6.00;6.00;;;;;;;;5208314;28;8773;-68
2022/05/30 03:35:40;;;;;;;;;2.50;2.50;;;;;;;;5208767;28;8775;-67
2022/05/30 03:38:49;;;;;;;;;1.00;1.00;;;;;;;;5146153;28;8821;-67
2022/05/30 03:41:44;;;;;;;;;4.00;4.00;;;;;;;;5156763;28;8821;-67
2022/05/30 03:44:27;;;;;;;;;4.50;4.50;;;;;;;;5172013;28;8913;-67
2022/05/30 03:46:58;;;;;;;;;2.50;2.50;;;;;;;;5227775;28;8925;-67
2022/05/30 03:49:29;;;;;;;;;4.50;4.50;;;;;;;;5211906;28;8855;-67
2022/05/30 03:52:00;;;;;;;;;2.00;2.00;;;;;;;;5228555;28;8794;-68
2022/05/30 03:54:31;;;;;;;;;2.67;2.67;;;;;;;;5228494;28;8823;-68
2022/05/30 03:57:03;;;;;;;;;1.00;1.00;;;;;;;;5212016;28;10809;-67
2022/05/30 03:59:34;;;;;;;;;2.00;2.00;;;;;;;;5228102;28;8816;-68
2022/05/30 04:02:25;;;;;;;;;5.75;5.75;;;;;;;;5220272;28;9522;-68
2022/05/30 04:04:56;;;;;;;;;2.00;2.00;;;;;;;;5207880;28;8911;-67
2022/05/30 04:07:27;;;;;;;;;2.00;2.00;;;;;;;;5217452;28;8777;-68
2022/05/30 04:10:16;;;;;;;;;2.75;2.75;;;;;;;;5230927;28;8805;-64
2022/05/30 04:13:08;;;;;;;;;3.75;3.75;;;;;;;;5209529;28;8807;-65
2022/05/30 04:15:57;;;;;;;;;5.00;5.00;;;;;;;;5225531;28;9450;-66
2022/05/30 04:18:28;;;;;;;;;2.00;2.00;;;;;;;;5207274;28;9537;-66
2022/05/30 04:20:59;;;;;;;;;4.00;4.00;;;;;;;;5224219;28;8853;-65
2022/05/30 04:23:31;;;;;;;;;5.75;5.75;;;;;;;;5224230;28;8791;-65
2022/05/30 04:26:09;;;;;;;;;5.75;5.75;;;;;;;;5191592;28;9615;-65
2022/05/30 04:28:44;;;;;;;;;9.00;9.00;;;;;;;;5191321;28;8869;-66
2022/05/30 04:31:38;;;;;;;;;7.25;7.25;;;;;;;;5206330;28;8787;-66
2022/05/30 04:34:09;;;;;;;;;8.00;7.75;;;;;;;;5191406;28;8821;-66
2022/05/30 04:36:43;;;;;;;;;7.33;7.00;;;;;;;;5221878;28;8942;-68
2022/05/30 04:39:14;;;;;;;;;5.00;5.00;;;;;;;;5228862;28;8843;-66
2022/05/30 04:42:01;;;;;;;;;5.75;5.75;;;;;;;;5225438;28;8791;-67
2022/05/30 04:44:51;;;;;;;;;7.50;7.50;;;;;;;;5207541;28;8857;-66
2022/05/30 04:47:22;;;;;;;;;6.75;6.75;;;;;;;;5223534;28;8866;-66
2022/05/30 04:49:54;;;;;;;;;5.50;5.50;;;;;;;;5227708;28;8807;-66
2022/05/30 04:52:27;;;;;;;;;7.00;7.00;;;;;;;;5228391;28;8764;-68
2022/05/30 04:54:59;;;;;;;;;8.00;7.75;;;;;;;;5228117;28;8773;-66
2022/05/30 04:57:50;;;;;;;;;6.50;6.50;;;;;;;;5228197;28;8794;-67
2022/05/30 05:00:41;;;;;;;;;2.75;2.75;;;;;;;;5228423;28;8813;-66
2022/05/30 05:03:14;;;;;;;;;4.00;4.00;;;;;;;;5211532;28;9488;-67
2022/05/30 05:05:45;;;;;;;;;4.00;4.00;;;;;;;;5216332;28;8791;-67
2022/05/30 05:08:16;;;;;;;;;3.00;3.00;;;;;;;;5190913;28;8826;-66
2022/05/30 05:11:17;;;;;;;;;2.50;2.50;;;;;;;;5225373;28;8857;-67
2022/05/30 05:14:07;;;;;;;;;3.00;3.00;;;;;;;;5196901;28;8891;-65
2022/05/30 05:16:56;;;;;;;;;2.00;2.00;;;;;;;;5210668;28;8807;-65
2022/05/30 05:19:32;;;;;;;;;5.25;5.25;;;;;;;;5244132;28;8834;-66
2022/05/30 05:22:06;;;;;;;;;8.75;8.75;;;;;;;;5234296;28;9002;-68
2022/05/30 05:24:55;;;;;;;;;3.50;3.50;;;;;;;;5202027;28;8800;-67
2022/05/30 05:27:48;;;;;;;;;3.75;3.50;;;;;;;;5229712;28;8949;-66
2022/05/30 05:30:21;;;;;;;;;3.00;3.00;;;;;;;;5229502;28;9601;-67
2022/05/30 05:32:52;;;;;;;;;4.00;4.00;;;;;;;;5229593;28;8773;-66
2022/05/30 05:35:23;;;;;;;;;5.00;5.00;;;;;;;;5210768;28;8816;-66
2022/05/30 05:37:56;;;;;;;;;5.00;5.00;;;;;;;;5227383;28;8808;-67
2022/05/30 05:40:46;;;;;;;;;3.50;3.25;;;;;;;;5195563;28;8793;-65
2022/05/30 05:43:19;;;;;;;;;3.00;3.00;;;;;;;;5188411;28;8796;-67
2022/05/30 05:45:51;;;;;;;;;4.00;4.00;;;;;;;;5212385;28;8866;-67
2022/05/30 05:48:22;;;;;;;;;2.00;2.00;;;;;;;;5213782;28;8812;-67
2022/05/30 05:50:54;;;;;;;;;3.75;3.50;;;;;;;;5230744;28;8800;-67
2022/05/30 05:53:25;;;;;;;;;4.25;4.25;;;;;;;;5214050;28;8870;-66
2022/05/30 05:55:56;;;;;;;;;4.00;4.00;;;;;;;;5230465;28;8813;-71
2022/05/30 05:58:27;;;;;;;;;4.00;4.00;;;;;;;;5228722;28;8808;-66
2022/05/30 06:01:04;;;;;;;;;5.50;5.50;;;;;;;;5193653;28;8779;-66
2022/05/30 06:03:36;;;;;;;;;4.25;4.25;;;;;;;;5197488;28;9515;-66
2022/05/30 06:06:34;;;;;;;;;4.00;4.00;;;;;;;;5219001;28;8788;-66
2022/05/30 06:09:06;;;;;;;;;3.75;3.75;;;;;;;;5214260;28;8784;-66
2022/05/30 06:12:09;;;;;;;;;2.00;2.00;;;;;;;;5221668;28;9229;-67
2022/05/30 06:14:43;;;;;;;;;5.25;5.25;;;;;;;;5230515;28;8795;-67
2022/05/30 06:17:14;;;;;;;;;7.75;7.75;;;;;;;;5230849;28;8792;-67
2022/05/30 06:19:46;;;;;;;;;8.00;8.00;;;;;;;;5225713;28;8828;-66
2022/05/30 06:22:19;;;;;;;;;4.00;4.00;;;;;;;;5213707;28;8792;-67
2022/05/30 06:24:50;;;;;;;;;0.75;0.75;;;;;;;;5195530;28;8795;-67
2022/05/30 06:27:40;;;;;;;;;4.50;4.50;;;;;;;;5209424;28;8774;-67
2022/05/30 06:30:28;;;;;;;;;1.25;1.25;;;;;;;;5209645;28;8821;-67
2022/05/30 06:32:59;;;;;;;;;7.50;7.50;;;;;;;;5192930;28;8794;-67
2022/05/30 06:35:47;;;;;;;;;6.75;6.75;;;;;;;;5196766;28;9004;-67
2022/05/30 06:38:20;;;;;;;;;4.25;4.00;;;;;;;;5212988;28;8808;-67
2022/05/30 06:40:56;;;;;;;;;3.00;3.00;;;;;;;;5213244;28;8849;-67
2022/05/30 06:43:27;;;;;;;;;1.50;1.50;;;;;;;;5196062;28;8816;-67
2022/05/30 06:46:16;;;;;;;;;3.00;2.50;;;;;;;;5232477;28;8788;-67
2022/05/30 06:49:06;;;;;;;;;4.00;4.00;;;;;;;;5247153;28;8832;-67
2022/05/30 06:51:50;;;;;;;;;0.00;0.00;;;;;;;;5213135;28;9532;-67
2022/05/30 06:54:21;;;;;;;;;4.00;4.00;;;;;;;;5200124;28;8883;-67
2022/05/30 06:59:41;;;;;;;;;2.50;2.00;;;;;;;;5226777;28;8826;-68
2022/05/30 07:02:15;;;;;;;;;2.00;2.00;;;;;;;;5229332;28;8911;-68
2022/05/30 07:05:05;;;;;;;;;3.50;3.50;;;;;;;;5246990;28;8785;-68
2022/05/30 07:07:56;;;;;;;;;3.00;3.00;;;;;;;;5229260;28;8773;-68
2022/05/30 07:10:51;;;;;;;;;6.25;6.25;;;;;;;;5228959;28;8781;-68
2022/05/30 07:13:25;;;;;;;;;6.50;6.50;;;;;;;;5228894;28;8773;-67
2022/05/30 07:16:15;;;;;;;;;3.00;3.00;;;;;;;;5228999;28;8792;-68
2022/05/30 07:19:07;;;;;;;;;3.75;3.75;;;;;;;;5231155;28;8885;-68
2022/05/30 07:21:42;;;;;;;;;4.00;4.00;;;;;;;;5226532;28;8792;-68
2022/05/30 07:24:32;;;;;;;;;2.50;2.50;;;;;;;;5194548;28;8801;-68
2022/05/30 07:27:42;;;;;;;;;2.50;2.50;;;;;;;;5166274;28;8795;-68
2022/05/30 07:30:42;;;;;;;;;2.50;2.50;;;;;;;;5148298;28;8779;-68
2022/05/30 07:33:34;;;;;;;;;4.00;4.00;;;;;;;;5168716;28;8791;-68
2022/05/30 07:36:25;;;;;;;;;4.50;4.50;;;;;;;;5211098;28;8815;-68
2022/05/30 07:39:23;;;;;;;;;4.00;4.00;;;;;;;;5208213;28;8895;-67
2022/05/30 07:42:18;;;;;;;;;6.00;5.00;;;;;;;;5201745;28;8805;-69
2022/05/30 07:45:12;;;;;;;;;6.00;6.00;;;;;;;;5214968;28;8788;-66
2022/05/30 07:48:02;;;;;;;;;5.00;5.00;;;;;;;;5228664;28;8839;-67
2022/05/30 07:50:57;;;;;;;;;6.00;6.00;;;;;;;;5245098;28;8803;-67
2022/05/30 07:53:44;;;;;;;;;3.00;3.00;;;;;;;;5219355;28;8910;-67
2022/05/30 07:56:26;;;;;;;;;4.00;4.00;;;;;;;;5191692;28;8860;-68
2022/05/30 07:58:59;;;;;;;;;5.00;5.00;;;;;;;;5191345;28;8807;-68
2022/05/30 08:01:30;;;;;;;;;3.00;3.00;;;;;;;;5230362;28;8794;-67
2022/05/30 08:04:02;;;;;;;;;4.00;4.00;;;;;;;;5221542;28;8807;-66
2022/05/30 08:06:39;;;;;;;;;4.00;4.00;;;;;;;;5229483;28;8772;-68
2022/05/30 08:09:28;;;;;;;;;3.00;3.00;;;;;;;;5204819;28;8915;-68
2022/05/30 08:12:20;;;;;;;;;3.00;3.00;;;;;;;;5186657;28;9535;-68
2022/05/30 08:15:00;;;;;;;;;3.75;3.75;;;;;;;;5187347;28;8789;-68
2022/05/30 08:17:42;;;;;;;;;3.00;3.00;;;;;;;;5170987;28;8769;-67
2022/05/30 08:20:14;;;;;;;;;4.00;4.00;;;;;;;;5181698;28;8830;-68
2022/05/30 08:22:46;;;;;;;;;2.00;2.00;;;;;;;;5207432;28;9104;-66
2022/05/30 08:25:18;;;;;;;;;3.25;3.25;;;;;;;;5211017;28;8818;-67
2022/05/30 08:27:49;;;;;;;;;2.00;2.00;;;;;;;;5186432;28;9535;-68
2022/05/30 08:30:21;;;;;;;;;4.00;4.00;;;;;;;;5227584;28;9527;-68
2022/05/30 08:33:16;;;;;;;;;2.00;2.00;;;;;;;;5192324;28;8964;-67
2022/05/30 08:36:08;;;;;;;;;3.25;3.25;;;;;;;;5204368;28;9529;-67
2022/05/30 08:38:42;;;;;;;;;5.75;5.75;;;;;;;;5191023;28;8831;-67
2022/05/30 08:41:49;;;;;;;;;4.00;4.00;;;;;;;;5193968;28;9462;-67
2022/05/30 08:44:40;;;;;;;;;2.00;2.00;;;;;;;;5210312;28;8763;-67
2022/05/30 08:47:50;;;;;;;;;3.00;3.00;;;;;;;;5208861;28;8811;-67
2022/05/30 08:50:44;;;;;;;;;1.50;1.50;;;;;;;;5194052;28;8903;-67
2022/05/30 08:53:15;;;;;;;;;1.75;1.75;;;;;;;;5227992;28;8785;-71
2022/05/30 08:55:53;;;;;;;;;2.00;2.00;;;;;;;;5211484;28;8773;-67
2022/05/30 08:58:45;;;;;;;;;0.50;0.50;;;;;;;;5217248;28;8851;-67
2022/05/30 09:01:25;;;;;;;;;1.33;1.33;;;;;;;;5190317;28;8812;-67
2022/05/30 09:04:54;;;;;;;;;2.00;2.00;;;;;;;;5206231;28;11397;-65
2022/05/30 09:07:31;;;;;;;;;1.00;1.00;;;;;;;;5189941;28;8796;-67
2022/05/30 09:10:07;;;;;;;;;3.75;3.75;;;;;;;;5206319;28;8811;-68
2022/05/30 09:12:51;;;;;;;;;3.00;3.00;;;;;;;;5174312;28;8800;-66
2022/05/30 09:15:52;;;;;;;;;1.00;1.00;;;;;;;;5175952;28;8812;-67
2022/05/30 09:18:28;;;;;;;;;1.00;1.00;;;;;;;;5189745;28;8866;-66
2022/05/30 09:21:19;;;;;;;;;1.00;1.00;;;;;;;;5192988;28;8808;-66
2022/05/30 09:23:53;;;;;;;;;2.00;2.00;;;;;;;;5174123;28;8898;-66
2022/05/30 09:26:26;;;;;;;;;2.25;2.25;;;;;;;;5190010;28;8792;-66
2022/05/30 09:29:05;;;;;;;;;2.75;2.75;;;;;;;;5174107;28;8795;-66
2022/05/30 09:31:37;;;;;;;;;5.00;5.00;;;;;;;;5206703;28;8788;-65
2022/05/30 09:34:45;;;;;;;;;0.00;0.00;;;;;;;;5195135;28;9547;-67
2022/05/30 09:37:37;;;;;;;;;3.00;3.00;;;;;;;;5192554;28;8792;-67
2022/05/30 09:40:18;;;;;;;;;0.00;0.00;;;;;;;;5206087;28;8832;-67
2022/05/30 09:43:31;;;;;;;;;2.00;2.00;;;;;;;;5192692;28;8803;-67
2022/05/30 09:46:23;;;;;;;;;4.25;4.25;;;;;;;;5189012;28;8780;-69
2022/05/30 09:49:43;;;;;;;;;1.75;1.75;;;;;;;;5167822;28;9691;-66
2022/05/30 09:52:29;;;;;;;;;3.00;3.00;;;;;;;;5168771;28;8839;-66
2022/05/30 09:55:24;;;;;;;;;2.50;2.50;;;;;;;;5190423;28;8833;-67
2022/05/30 09:57:57;;;;;;;;;3.00;3.00;;;;;;;;5173213;28;8800;-67
2022/05/30 10:00:53;;;;;;;;;4.25;4.25;;;;;;;;5189355;28;8797;-66
2022/05/30 10:03:27;;;;;;;;;5.00;5.00;;;;;;;;5190099;28;8812;-67
2022/05/30 10:06:17;;;;;;;;;5.00;5.00;;;;;;;;5174853;28;8862;-66
2022/05/30 10:08:49;;;;;;;;;4.00;4.00;;;;;;;;5172999;28;8780;-66
2022/05/30 10:11:32;;;;;;;;;3.50;3.50;;;;;;;;5189539;28;8851;-68
2022/05/30 10:14:20;;;;;;;;;2.00;2.00;;;;;;;;5189420;28;8916;-68
2022/05/30 10:17:28;;;;;;;;;2.75;2.75;;;;;;;;5189180;28;8827;-67
2022/05/30 10:20:07;;;;;;;;;3.00;3.00;;;;;;;;5189060;28;8889;-66
2022/05/30 10:29:49;;;;;;;;;2.00;2.00;;;;;;;;5205303;28;8773;-66
2022/05/30 10:32:41;;;;;;;;;3.00;3.00;;;;;;;;5205517;28;8776;-66
2022/05/30 10:35:12;;;;;;;;;0.00;0.00;;;;;;;;5172482;28;9570;-67
2022/05/30 10:37:50;;;;;;;;;3.50;3.50;;;;;;;;5188683;28;8776;-67
2022/05/30 10:40:41;;;;;;;;;0.00;0.00;;;;;;;;5188773;28;8831;-67
2022/05/30 10:43:32;;;;;;;;;2.00;2.00;;;;;;;;5206519;28;8780;-67
2022/05/30 10:46:27;;;;;;;;;2.00;2.00;;;;;;;;5190909;28;8906;-67
2022/05/30 10:49:01;;;;;;;;;2.00;2.00;;;;;;;;5188565;28;8875;-67
2022/05/30 10:52:03;;;;;;;;;3.75;3.75;;;;;;;;5188479;28;9581;-67
2022/05/30 10:54:41;;;;;;;;;1.00;1.00;;;;;;;;5187682;28;9491;-66
2022/05/30 10:57:41;;;;;;;;;2.25;2.25;;;;;;;;5189033;28;8780;-66
2022/05/30 11:00:15;;;;;;;;;3.00;3.00;;;;;;;;5172288;28;9524;-66
2022/05/30 11:03:11;;;;;;;;;1.75;1.75;;;;;;;;5205066;28;8780;-67
2022/05/30 11:06:15;;;;;;;;;1.00;1.00;;;;;;;;5206153;28;8760;-68
2022/05/30 11:09:03;;;;;;;;;4.00;4.00;;;;;;;;5172420;28;8788;-66
2022/05/30 11:12:20;;;;;;;;;3.50;3.00;;;;;;;;5204055;28;8805;-67
2022/05/30 11:15:06;;;;;;;;;4.00;4.00;;;;;;;;5187783;28;8793;-65
2022/05/30 11:18:05;;;;;;;;;4.00;4.00;;;;;;;;5205515;28;8788;-66
2022/05/30 11:21:02;;;;;;;;;2.75;2.75;;;;;;;;5190488;28;8809;-66
2022/05/30 11:23:42;;;;;;;;;2.00;2.00;;;;;;;;5173535;28;8804;-66
2022/05/30 11:26:50;;;;;;;;;3.00;3.00;;;;;;;;5204414;28;8801;-67
2022/05/30 11:29:24;;;;;;;;;2.25;2.25;;;;;;;;5187936;28;9662;-66
2022/05/30 11:32:03;;;;;;;;;2.75;2.75;;;;;;;;5171234;28;8796;-66
2022/05/30 11:34:34;;;;;;;;;3.00;3.00;;;;;;;;5171491;28;8923;-67
2022/05/30 11:37:14;;;;;;;;;4.00;4.00;;;;;;;;5204120;28;8899;-67
2022/05/30 11:39:57;;;;;;;;;1.25;1.25;;;;;;;;5187536;28;11652;-66
2022/05/30 11:42:28;;;;;;;;;1.25;1.25;;;;;;;;5171248;28;8970;-66
2022/05/30 11:45:30;;;;;;;;;2.25;2.25;;;;;;;;5190014;28;8816;-66
2022/05/30 11:48:05;;;;;;;;;4.00;4.00;;;;;;;;5203962;28;8837;-67
2022/05/30 11:50:43;;;;;;;;;3.00;3.00;;;;;;;;5187302;28;8816;-67
2022/05/30 11:53:21;;;;;;;;;3.50;3.50;;;;;;;;5171291;28;8811;-67
2022/05/30 11:56:11;;;;;;;;;2.00;2.00;;;;;;;;5203975;28;8845;-66
2022/05/30 11:58:58;;;;;;;;;1.75;1.75;;;;;;;;5187361;28;8890;-67
2022/05/30 12:01:31;;;;;;;;;7.25;7.25;;;;;;;;5171201;28;8823;-65
2022/05/30 12:04:20;;;;;;;;;5.00;5.00;;;;;;;;5187379;28;8866;-67
2022/05/30 12:06:58;;;;;;;;;3.50;3.50;;;;;;;;5205014;28;8906;-66
2022/05/30 12:09:29;;;;;;;;;20.80;20.80;;;;;;;;5203602;28;10140;-66
2022/05/30 12:12:12;;;;;;;;;8.50;8.50;;;;;;;;5204112;28;8777;-67
2022/05/30 12:14:56;;;;;;;;;1.00;1.00;;;;;;;;5187272;28;8834;-66
2022/05/30 12:24:06;;;;;;;;;4.00;4.00;;;;;;;;5208983;28;8799;-66
2022/05/30 12:27:00;;;;;;;;;8.00;7.75;;;;;;;;5208014;28;8765;-66
2022/05/30 12:29:39;;;;;;;;;9.00;9.00;;;;;;;;5191351;28;8780;-66
2022/05/30 12:32:16;;;;;;;;;4.25;4.25;;;;;;;;5174917;28;8794;-67
2022/05/30 12:35:10;;;;;;;;;2.75;2.75;;;;;;;;5175488;28;9570;-67
2022/05/30 12:37:44;;;;;;;;;2.00;2.00;;;;;;;;5207662;28;8792;-66
2022/05/30 12:40:32;;;;;;;;;1.25;1.25;;;;;;;;5190905;28;8820;-66
2022/05/30 12:43:23;;;;;;;;;4.50;4.50;;;;;;;;5207983;28;8768;-66
2022/05/30 12:45:54;;;;;;;;;2.50;2.50;;;;;;;;5191072;28;8799;-66
2022/05/30 12:48:36;;;;;;;;;4.33;4.33;;;;;;;;5209925;28;9626;-66
2022/05/30 12:51:30;;;;;;;;;1.75;1.75;;;;;;;;5211318;28;8783;-65
2022/05/30 12:54:01;;;;;;;;;1.75;1.75;;;;;;;;5229580;28;8956;-66
2022/05/30 12:56:38;;;;;;;;;2.33;2.33;;;;;;;;5211181;28;8917;-66
2022/05/30 12:59:17;;;;;;;;;3.25;3.25;;;;;;;;5194595;28;10931;-66
2022/05/30 13:01:49;;;;;;;;;4.00;4.00;;;;;;;;5211569;28;8821;-66
2022/05/30 13:04:25;;;;;;;;;0.75;0.75;;;;;;;;5194469;28;8785;-67
2022/05/30 13:07:01;;;;;;;;;3.00;3.00;;;;;;;;5211142;28;9544;-67
2022/05/30 13:09:36;;;;;;;;;6.50;6.50;;;;;;;;5194417;28;8795;-66
2022/05/30 13:12:07;;;;;;;;;5.00;5.00;;;;;;;;5210997;28;8972;-66
2022/05/30 13:14:59;;;;;;;;;2.50;2.50;;;;;;;;5210788;28;8902;-67
2022/05/30 13:17:37;;;;;;;;;5.00;5.00;;;;;;;;5210615;28;8885;-66
2022/05/30 13:20:14;;;;;;;;;4.25;4.25;;;;;;;;5210637;28;8842;-66
2022/05/30 13:22:54;;;;;;;;;2.50;2.50;;;;;;;;5194394;28;8855;-66
2022/05/30 13:25:28;;;;;;;;;5.00;5.00;;;;;;;;5194219;28;8783;-66
2022/05/30 13:28:07;;;;;;;;;6.00;6.00;;;;;;;;5194549;28;8801;-67
2022/05/30 13:30:42;;;;;;;;;2.00;2.00;;;;;;;;5210886;28;8823;-66
2022/05/30 13:33:20;;;;;;;;;2.00;2.00;;;;;;;;5210521;28;9553;-67
2022/05/30 13:35:53;;;;;;;;;4.00;4.00;;;;;;;;5210091;28;9613;-66
2022/05/30 13:38:37;;;;;;;;;2.75;2.75;;;;;;;;5193647;28;8860;-65
2022/05/30 13:41:15;;;;;;;;;1.75;1.75;;;;;;;;5209887;28;8823;-66
2022/05/30 13:44:08;;;;;;;;;2.00;2.00;;;;;;;;5225421;28;8811;-66
2022/05/30 13:46:53;;;;;;;;;1.00;1.00;;;;;;;;5208428;28;8809;-67
2022/05/30 13:49:39;;;;;;;;;1.00;1.00;;;;;;;;5226104;28;8948;-67
2022/05/30 13:52:18;;;;;;;;;1.75;1.75;;;;;;;;5227161;28;8789;-66
2022/05/30 13:54:56;;;;;;;;;2.25;2.25;;;;;;;;5226692;28;8781;-66
2022/05/30 13:57:27;;;;;;;;;3.00;3.00;;;;;;;;5226455;28;8786;-66
2022/05/30 14:00:05;;;;;;;;;1.00;1.00;;;;;;;;5224089;28;8840;-66
2022/05/30 14:02:40;;;;;;;;;2.50;2.50;;;;;;;;5205296;28;9617;-66
2022/05/30 14:05:13;;;;;;;;;1.00;1.00;;;;;;;;5210130;28;8916;-67
2022/05/30 14:07:49;;;;;;;;;1.75;1.75;;;;;;;;5209314;28;8782;-66
2022/05/30 14:10:23;;;;;;;;;2.00;2.00;;;;;;;;5227818;28;8840;-67
2022/05/30 14:12:54;;;;;;;;;5.50;5.50;;;;;;;;5227915;28;8781;-66
2022/05/30 14:15:25;;;;;;;;;1.33;1.33;;;;;;;;5226222;28;8800;-66
2022/05/30 14:17:56;;;;;;;;;2.00;2.00;;;;;;;;5219548;28;10982;-66
2022/05/30 14:20:48;;;;;;;;;2.00;2.00;;;;;;;;5205156;28;8836;-67
2022/05/30 14:23:21;;;;;;;;;2.00;2.00;;;;;;;;5188847;28;8807;-68
2022/05/30 14:25:53;;;;;;;;;2.25;2.25;;;;;;;;5204716;28;8808;-66
2022/05/30 14:28:29;;;;;;;;;2.00;2.00;;;;;;;;5206576;28;8893;-65
2022/05/30 14:31:16;;;;;;;;;2.75;2.75;;;;;;;;5225518;28;8782;-66
2022/05/30 14:33:58;;;;;;;;;4.50;4.50;;;;;;;;5207071;28;8851;-66
2022/05/30 14:36:41;;;;;;;;;6.00;6.00;;;;;;;;5210258;28;8915;-66
2022/05/30 14:39:14;;;;;;;;;6.50;6.50;;;;;;;;5205181;28;8954;-66
2022/05/30 14:41:51;;;;;;;;;5.50;5.50;;;;;;;;5214837;28;8793;-65
2022/05/30 14:44:22;;;;;;;;;3.25;3.25;;;;;;;;5217730;28;8768;-65
2022/05/30 14:46:54;;;;;;;;;6.33;6.33;;;;;;;;5184611;28;9584;-65
2022/05/30 14:49:32;;;;;;;;;3.75;3.75;;;;;;;;5168276;28;9989;-67
2022/05/30 14:52:04;;;;;;;;;8.25;8.25;;;;;;;;5184229;28;8814;-66
2022/05/30 14:54:38;;;;;;;;;2.75;2.50;;;;;;;;5184499;28;8802;-67
2022/05/30 14:57:15;;;;;;;;;5.00;5.00;;;;;;;;5192866;28;8844;-66
2022/05/30 14:59:46;;;;;;;;;3.00;3.00;;;;;;;;5209059;28;8847;-67
2022/05/30 15:05:09;;;;;;;;;3.00;3.00;;;;;;;;5205024;28;8794;-64
2022/05/30 15:07:44;;;;;;;;;4.25;4.25;;;;;;;;5205644;28;8801;-66
2022/05/30 15:10:18;;;;;;;;;3.50;3.50;;;;;;;;5204586;28;8824;-66
2022/05/30 15:12:49;;;;;;;;;4.00;4.00;;;;;;;;5190422;28;8816;-67
2022/05/30 15:15:20;;;;;;;;;5.25;5.25;;;;;;;;5203487;28;8862;-66
2022/05/30 15:17:51;;;;;;;;;4.67;4.67;;;;;;;;5204122;28;8827;-66
2022/05/30 15:20:22;;;;;;;;;6.00;6.00;;;;;;;;5205156;28;10560;-65
2022/05/30 15:22:58;;;;;;;;;4.50;4.50;;;;;;;;5187320;28;11485;-66
2022/05/30 15:25:47;;;;;;;;;5.00;5.00;;;;;;;;5204788;28;8796;-66
2022/05/30 15:28:18;;;;;;;;;3.00;3.00;;;;;;;;5205143;28;9589;-66
2022/05/30 15:30:49;;;;;;;;;2.33;2.33;;;;;;;;5206131;28;8800;-66
2022/05/30 15:33:20;;;;;;;;;1.25;1.25;;;;;;;;5205017;28;11459;-68
2022/05/30 15:35:51;;;;;;;;;2.33;2.33;;;;;;;;5205634;28;8815;-66
2022/05/30 15:38:22;;;;;;;;;3.00;3.00;;;;;;;;5203902;28;9329;-67
2022/05/30 15:40:53;;;;;;;;;5.00;5.00;;;;;;;;5205240;28;8800;-66
2022/05/30 15:43:24;;;;;;;;;2.50;2.50;;;;;;;;5204610;28;8815;-66
2022/05/30 15:45:56;;;;;;;;;5.25;5.25;;;;;;;;5203360;28;8773;-65
2022/05/30 15:48:27;;;;;;;;;5.75;5.75;;;;;;;;5188937;28;8780;-65
2022/05/30 15:50:58;;;;;;;;;6.75;6.75;;;;;;;;5191099;28;8807;-66
2022/05/30 15:59:08;;;;;;;;;7.00;7.00;;;;;;;;5207244;28;9044;-64
2022/05/30 16:01:41;;;;;;;;;6.75;6.75;;;;;;;;5190958;28;8814;-64
2022/05/30 16:04:12;;;;;;;;;7.50;7.50;;;;;;;;5225116;28;8802;-65
2022/05/30 16:06:45;;;;;;;;;13.00;13.00;;;;;;;;5207169;28;8779;-65
2022/05/30 16:09:17;;;;;;;;;8.75;8.75;;;;;;;;5207444;28;12241;-65
2022/05/30 16:11:49;;;;;;;;;10.50;10.25;;;;;;;;5225144;28;8770;-64
2022/05/30 16:14:20;;;;;;;;;8.75;8.75;;;;;;;;5224833;28;8794;-65
2022/05/30 16:16:51;;;;;;;;;6.75;6.75;;;;;;;;5207267;28;8785;-63
2022/05/30 16:19:21;;;;;;;;;6.00;6.00;;;;;;;;5224995;28;8963;-66
2022/05/30 16:21:55;;;;;;;;;5.00;5.00;;;;;;;;5225704;28;8763;-66
2022/05/30 16:24:26;;;;;;;;;5.50;5.50;;;;;;;;5238931;28;11408;-66
2022/05/30 16:26:57;;;;;;;;;4.00;4.00;;;;;;;;5245723;28;8801;-65
2022/05/30 16:29:28;;;;;;;;;7.50;7.50;;;;;;;;5236669;28;8824;-66
2022/05/30 16:32:18;;;;;;;;;4.00;4.00;;;;;;;;5228052;28;9499;-66
2022/05/30 16:34:49;;;;;;;;;0.75;0.75;;;;;;;;5244215;28;8835;-65
2022/05/30 16:37:21;;;;;;;;;2.50;2.50;;;;;;;;5227718;28;8777;-66
2022/05/30 16:39:52;;;;;;;;;6.00;6.00;;;;;;;;5225891;28;8835;-65
2022/05/30 16:42:42;;;;;;;;;8.75;8.75;;;;;;;;5221927;28;8917;-65